Latest Coastal Weather Observations for Double Island Point

IDQ60701

Issued at 5:42 am EST Saturday 30 July 2016 (issued every 10 minutes, with the page automatically refreshed every 10 minutes)

About coastal observations | Map of coastal stations | Coastal observations for QLD | Marine services | Other Formats
Station Details ID: 040068 Name: DOUBLE ISLAND POINT LIGHTHOUSE Lat: -25.93 Lon: 153.19 Height: 95.64 m
Data from the previous 72 hours. | See also: Recent months at Double Island Point
Date/Time
EST
Temp
°C
Wind Pressure Rain since
9am
mm
Weather Cloud Vis
km
Sea
Height
m
Swell
Dir  Spd
kts
Gust
kts
hPa Trend Height
m
Period
s
Dir
30/05:30am 17.3 W 8 8 1019.4 - 0.0 - - - - - - -
30/05:00am 17.1 W 9 10 1019.4 - 0.0 - - - - - - -
30/04:30am 17.2 W 8 9 1019.0 - 0.0 - - - - - - -
30/04:00am 17.1 W 9 9 1018.9 - 0.0 - - - - - - -
30/03:30am 17.1 WNW 8 9 1019.0 - 0.0 - - - - - - -
30/03:00am 17.1 WNW 8 8 1019.3 - 0.0 - - - - - - -
30/02:30am 17.0 WNW 7 8 1019.4 - 0.0 - - - - - - -
30/02:00am 17.0 WNW 6 7 1019.7 - 0.0 - - - - - - -
30/01:30am 17.2 WNW 6 7 1020.0 - 0.0 - - - - - - -
30/01:00am 17.2 W 5 6 1020.5 - 0.0 - - - - - - -
30/12:30am 17.5 N 4 7 1020.6 - 0.0 - - - - - - -
30/12:00am 17.6 N 5 7 1020.9 - 0.0 - - - - - - -
 
Date/Time
EST
Temp
°C
Wind Pressure Rain since
9am
mm
Weather Cloud Vis
km
Sea
Height
m
Swell
Dir  Spd
kts
Gust
kts
hPa Trend Height
m
Period
s
Dir
29/11:30pm 17.8 NNE 7 11 1020.8 - 0.0 - - - - - - -
29/11:00pm 17.8 NNE 9 11 1020.8 - 0.0 - - - - - - -
29/10:30pm 17.7 NNE 7 9 1020.8 - 0.0 - - - - - - -
29/10:00pm 17.9 NE 7 9 1021.0 - 0.0 - - - - - - -
29/09:30pm 18.1 NE 7 9 1020.9 - 0.0 - - - - - - -
29/09:00pm 18.3 NE 7 9 1021.0 - 0.0 - - - - - - -
29/08:30pm 18.1 NE 7 9 1021.0 - 0.0 - - - - - - -
29/08:00pm 18.5 NE 7 11 1020.7 - 0.0 - - - - - - -
29/07:30pm 18.7 ENE 8 9 1020.6 - 0.0 - - - - - - -
29/07:00pm 18.4 ENE 7 9 1020.4 - 0.0 - - - - - - -
29/06:30pm 18.3 E 8 9 1020.1 - 0.0 - - - - - - -
29/06:00pm 18.4 E 9 11 1020.0 - 0.0 - - - - - - -
29/05:30pm 18.2 ESE 8 11 1019.7 - 0.0 - - - - - - -
29/05:00pm 18.6 ESE 10 13 1019.7 - 0.0 - - - - - - -
29/04:30pm 18.8 ESE 10 13 1019.6 - 0.0 - - - - - - -
29/04:00pm 18.9 SE 10 13 1019.8 - 0.0 - - - - - - -
29/03:30pm 19.1 SE 11 14 1019.8 - 0.0 - - - - - - -
29/03:00pm 19.4 SE 12 15 1019.7 - 0.0 - - - - - - -
29/02:30pm 19.6 SE 13 15 1019.8 - 0.0 - - - - - - -
29/02:00pm 19.9 SSE 13 16 1020.0 - 0.0 - - - - - - -
29/01:30pm 20.0 SSE 12 14 1020.2 - 0.0 - - - - - - -
29/01:00pm 20.1 SSE 12 16 1020.7 - 0.0 - - - - - - -
29/12:30pm 19.7 SSE 12 15 1021.1 - 0.0 - - - - - - -
29/12:00pm 19.4 S 14 17 1021.4 - 0.0 - - - - - - -
29/11:30am 19.4 S 13 17 1021.8 - 0.0 - - - - - - -
29/11:00am 19.5 S 13 18 1022.4 - 0.0 - - - - - - -
29/10:30am 18.3 S 13 16 1022.8 - 0.0 - - - - - - -
29/10:00am 18.2 S 12 15 1023.0 - 0.0 - - - - - - -
29/09:30am 17.9 S 14 17 1023.0 - 0.0 - - - - - - -
29/09:00am 17.8 S 15 20 1022.9 - 0.0 - - - - - - -
29/08:30am 17.5 S 15 17 1022.7 - 0.0 - - - - - - -
29/08:00am 17.5 S 14 16 1022.6 - 0.0 - - - - - - -
29/07:30am 17.6 S 16 19 1022.2 - 0.0 - - - - - - -
29/07:00am 17.4 S 13 17 1022.1 - 0.0 - - - - - - -
29/06:30am 17.3 S 13 17 1022.1 - 0.0 - - - - - - -
29/06:00am 17.3 S 13 16 1021.8 - 0.0 - - - - - - -
29/05:30am 17.5 S 14 18 1021.4 - 0.0 - - - - - - -
29/05:00am 17.5 S 14 17 1021.2 - 0.0 - - - - - - -
29/04:30am 17.2 S 13 16 1021.0 - 0.0 - - - - - - -
29/04:00am 17.1 S 14 17 1020.8 - 0.0 - - - - - - -
29/03:30am 16.8 S 13 15 1020.8 - 0.0 - - - - - - -
29/03:00am 16.8 S 13 15 1020.8 - 0.0 - - - - - - -
29/02:30am 16.6 S 14 16 1020.9 - 0.0 - - - - - - -
29/02:00am 16.6 S 14 16 1021.0 - 0.0 - - - - - - -
29/01:30am 16.4 S 13 16 1021.1 - 0.0 - - - - - - -
29/01:00am 16.5 S 14 16 1021.4 - 0.0 - - - - - - -
29/12:30am 16.4 S 15 16 1021.5 - 0.0 - - - - - - -
29/12:00am 16.5 S 15 17 1021.6 - 0.0 - - - - - - -
 
Date/Time
EST
Temp
°C
Wind Pressure Rain since
9am
mm
Weather Cloud Vis
km
Sea
Height
m
Swell
Dir  Spd
kts
Gust
kts
hPa Trend Height
m
Period
s
Dir
28/11:30pm 16.5 S 16 18 1021.7 - 0.0 - - - - - - -
28/11:00pm 16.5 S 16 19 1021.9 - 0.0 - - - - - - -
28/10:30pm 16.6 S 16 18 1022.2 - 0.0 - - - - - - -
28/10:00pm 16.7 SSW 15 17 1022.4 - 0.0 - - - - - - -
28/09:30pm 16.9 S 14 18 1022.3 - 0.0 - - - - - - -
28/09:00pm 17.4 S 14 18 1022.5 - 0.0 - - - - - - -
28/08:30pm 18.4 SSE 18 23 1022.6 - 0.0 - - - - - - -
28/08:00pm 18.4 SSE 17 22 1022.6 - 0.0 - - - - - - -
28/07:30pm 18.3 SSE 16 21 1022.6 - 0.0 - - - - - - -
28/07:00pm 18.3 SSE 16 20 1022.3 - 0.0 - - - - - - -
28/06:30pm 18.3 SSE 15 20 1022.1 - 0.0 - - - - - - -
28/06:00pm 18.3 SSE 17 20 1022.0 - 0.0 - - - - - - -
28/05:30pm 18.1 SSE 16 21 1021.6 - 0.0 - - - - - - -
28/05:00pm 18.2 SSE 17 21 1021.3 - 0.0 - - - - - - -
28/04:30pm 18.2 SSE 17 21 1021.2 - 0.0 - - - - - - -
28/04:00pm 18.2 SSE 17 21 1021.1 - 0.0 - - - - - - -
28/03:30pm 18.4 SSE 17 20 1021.0 - 0.0 - - - - - - -
28/03:00pm 18.5 SSE 17 21 1020.9 - 0.0 - - - - - - -
28/02:30pm 18.4 SSE 18 23 1020.9 - 0.0 - - - - - - -
28/02:00pm 18.5 SSE 18 22 1021.1 - 0.0 - - - - - - -
28/01:30pm 18.4 SSE 18 23 1021.2 - 0.0 - - - - - - -
28/01:00pm 18.4 SSE 17 21 1021.5 - 0.0 - - - - - - -
28/12:30pm 18.3 S 18 24 1021.8 - 0.0 - - - - - - -
28/12:00pm 18.0 S 18 23 1022.1 - 0.0 - - - - - - -
28/11:30am 17.6 S 18 23 1022.5 - 0.0 - - - - - - -
28/11:00am 17.3 S 19 24 1022.8 - 0.0 - - - - - - -
28/10:30am 17.1 S 19 25 1023.1 - 0.0 - - - - - - -
28/10:00am 16.7 S 19 24 1022.9 - 0.0 - - - - - - -
28/09:30am 16.6 S 20 26 1023.0 - 0.0 - - - - - - -
28/09:00am 16.3 S 21 26 1022.7 - 0.0 - - - - - - -
28/08:30am 16.1 S 21 25 1022.6 - 0.0 - - - - - - -
28/08:00am 15.9 S 17 22 1022.5 - 0.0 - - - - - - -
28/07:30am 14.8 S 14 18 1022.1 - 0.0 - - - - - - -
28/07:00am 13.9 SSW 15 18 1021.8 - 0.0 - - - - - - -
28/06:30am 14.2 S 15 20 1021.5 - 0.0 - - - - - - -
28/06:00am 14.5 S 15 20 1021.1 - 0.0 - - - - - - -
28/05:30am 14.1 S 16 20 1020.7 - 0.0 - - - - - - -
28/05:00am 14.0 SSW 17 19 1020.7 - 0.0 - - - - - - -
28/04:30am 14.3 SSW 17 22 1020.6 - 0.0 - - - - - - -
28/04:00am 14.9 SSW 15 22 1020.6 - 0.0 - - - - - - -
28/03:30am 15.3 SSW 17 23 1020.8 - 0.0 - - - - - - -
28/03:00am 15.6 SSW 19 25 1020.8 - 0.0 - - - - - - -
28/02:30am 15.7 SSW 16 23 1021.1 - 0.0 - - - - - - -
28/02:00am 15.6 SSW 15 19 1021.2 - 0.0 - - - - - - -
28/01:30am 15.7 SSW 15 18 1021.2 - 0.0 - - - - - - -
28/01:00am 15.9 SSW 15 18 1021.4 - 0.0 - - - - - - -
28/12:30am 15.6 SSW 12 15 1021.5 - 0.0 - - - - - - -
28/12:00am 15.9 SSW 12 14 1021.3 - 0.0 - - - - - - -
 
Date/Time
EST
Temp
°C
Wind Pressure Rain since
9am
mm
Weather Cloud Vis
km
Sea
Height
m
Swell
Dir  Spd
kts
Gust
kts
hPa Trend Height
m
Period
s
Dir
27/11:30pm 16.0 SSW 12 15 1021.3 - 0.0 - - - - - - -
27/11:00pm 16.3 SW 11 15 1021.2 - 0.0 - - - - - - -
27/10:30pm 16.5 WSW 11 12 1021.1 - 0.0 - - - - - - -
27/10:00pm 16.7 WSW 9 10 1021.0 - 0.0 - - - - - - -
27/09:30pm 17.1 SW 13 16 1020.6 - 0.0 - - - - - - -
27/09:00pm 17.3 SW 15 17 1020.1 - 0.0 - - - - - - -
27/08:30pm 17.1 SW 12 13 1020.0 - 0.0 - - - - - - -
27/08:00pm 17.4 WSW 8 10 1019.8 - 0.0 - - - - - - -
27/07:30pm 17.2 W 7 9 1019.4 - 0.0 - - - - - - -
27/07:00pm 17.2 W 6 8 1018.9 - 0.0 - - - - - - -
27/06:30pm 17.4 WSW 6 7 1018.5 - 0.0 - - - - - - -
27/06:00pm 17.4 SW 5 7 1018.2 - 0.0 - - - - - - -
27/05:30pm 17.2 SW 5 5 1018.2 - 0.0 - - - - - - -
27/05:00pm 17.4 SSW 7 8 1017.8 - 0.0 - - - - - - -
27/04:30pm 17.7 SSW 9 11 1017.3 - 0.0 - - - - - - -
27/04:00pm 18.1 S 10 12 1016.9 - 0.0 - - - - - - -
27/03:30pm 18.5 SSW 11 13 1016.7 - 0.0 - - - - - - -
27/03:00pm 18.6 SSW 8 10 1016.7 - 0.0 - - - - - - -
27/02:30pm 19.5 SSW 8 12 1016.9 - 0.0 - - - - - - -
27/02:00pm 20.1 SW 7 10 1017.0 - 0.0 - - - - - - -
27/01:30pm 19.9 S 10 13 1017.2 - 0.0 - - - - - - -
27/01:00pm 20.4 SSE 8 10 1017.1 - 0.0 - - - - - - -
27/12:30pm 20.5 SE 6 7 1017.6 - 0.0 - - - - - - -
27/12:00pm 20.2 S 6 9 1018.0 - 0.0 - - - - - - -
27/11:30am 20.7 SW 7 11 1018.5 - 0.0 - - - - - - -
27/11:00am 20.2 SW 8 13 1019.3 - 0.0 - - - - - - -
27/10:30am 19.5 SW 12 17 1019.2 - 0.0 - - - - - - -
27/10:00am 19.1 WNW 6 9 1019.4 - 0.0 - - - - - - -
27/09:30am 18.1 NW 7 9 1019.3 - 0.0 - - - - - - -
27/09:00am 17.6 WNW 6 7 1019.2 - 0.0 - - - - - - -
27/08:30am 16.1 WSW 8 10 1019.5 - 0.0 - - - - - - -
27/08:00am 16.0 W 10 14 1018.9 - 0.0 - - - - - - -
27/07:30am 15.8 W 12 15 1018.9 - 0.0 - - - - - - -
27/07:00am 15.5 WSW 11 14 1018.9 - 0.0 - - - - - - -
27/06:30am 15.0 WSW 10 13 1019.0 - 0.0 - - - - - - -
27/06:00am 15.6 W 3 8 1018.5 - 0.0 - - - - - - -

Other Formats:

Comma delimited format used in spreadsheet applications
http://www.bom.gov.au/fwo/IDQ60701/IDQ60701.94584.axf

JavaScript Object Notation format (JSON) in row-major order
http://www.bom.gov.au/fwo/IDQ60701/IDQ60701.94584.json